Time;durP1;ratioP1;P1;durP2;ratioP2;P2;SDS_P1;SDS_P2;PMS_P1;PMS_P2;Temp;Humidity;BMP_temperature;BMP_pressure;BME280_temperature;BME280_humidity;BME280_pressure;Samples;Min_cycle;Max_cycle;Signal;HPM_P1;HPM_P2
2022/08/08 00:02:22;;;;;;;0.43;0.43;;;;;;;;;;5064573;28;20199;-86
2022/08/08 00:05:03;;;;;;;0.30;0.30;;;;;;;;;;5067635;28;20201;-85
2022/08/08 00:07:40;;;;;;;0.40;0.40;;;;;;;;;;5071591;28;20268;-85
2022/08/08 00:10:12;;;;;;;0.67;0.67;;;;;;;;;;5092431;28;20205;-85
2022/08/08 00:12:50;;;;;;;0.30;0.30;;;;;;;;;;5072669;28;20204;-85
2022/08/08 00:15:26;;;;;;;0.40;0.40;;;;;;;;;;5065026;28;20207;-85
2022/08/08 00:18:22;;;;;;;0.33;0.33;;;;;;;;;;5053096;28;20187;-85
2022/08/08 00:20:55;;;;;;;0.40;0.40;;;;;;;;;;5074564;28;20206;-86
2022/08/08 00:23:32;;;;;;;0.30;0.30;;;;;;;;;;5091363;28;20214;-85
2022/08/08 00:26:17;;;;;;;0.87;0.87;;;;;;;;;;5078680;28;20250;-85
2022/08/08 00:28:54;;;;;;;0.67;0.67;;;;;;;;;;5064812;28;20223;-85
2022/08/08 00:31:25;;;;;;;0.40;0.40;;;;;;;;;;5069964;28;20187;-85
2022/08/08 00:37:20;;;;;;;0.50;0.50;;;;;;;;;;5070618;28;20201;-85
2022/08/08 00:40:21;;;;;;;0.53;0.53;;;;;;;;;;5058134;28;20254;-85
2022/08/08 00:43:21;;;;;;;0.50;0.50;;;;;;;;;;5096277;28;20211;-85
2022/08/08 00:46:10;;;;;;;0.67;0.67;;;;;;;;;;5096475;28;20200;-85
2022/08/08 00:48:59;;;;;;;0.43;0.43;;;;;;;;;;5065425;28;20220;-85
2022/08/08 00:51:52;;;;;;;0.30;0.30;;;;;;;;;;5078191;28;20209;-84
2022/08/08 00:54:44;;;;;;;0.30;0.30;;;;;;;;;;5065413;28;20205;-84
2022/08/08 00:57:39;;;;;;;0.30;0.30;;;;;;;;;;5059014;28;20238;-84
2022/08/08 01:00:09;;;;;;;0.30;0.30;;;;;;;;;;5049254;28;20231;-83
2022/08/08 01:02:56;;;;;;;0.87;0.87;;;;;;;;;;5078793;28;20237;-83
2022/08/08 01:06:02;;;;;;;0.30;0.30;;;;;;;;;;5076552;28;20205;-83
2022/08/08 01:08:49;;;;;;;0.40;0.40;;;;;;;;;;5065608;28;20233;-83
2022/08/08 01:11:38;;;;;;;0.60;0.60;;;;;;;;;;5078763;28;20220;-83
2022/08/08 01:14:18;;;;;;;0.30;0.30;;;;;;;;;;5076852;28;20299;-83
2022/08/08 01:17:34;;;;;;;4.27;0.93;;;;;;;;;;5058648;28;20209;-83
2022/08/08 01:20:37;;;;;;;0.80;0.80;;;;;;;;;;5068581;28;20203;-84
2022/08/08 01:23:26;;;;;;;0.30;0.30;;;;;;;;;;5084649;28;20412;-84
2022/08/08 01:26:28;;;;;;;0.40;0.40;;;;;;;;;;5066697;28;20209;-84
2022/08/08 01:29:12;;;;;;;0.30;0.30;;;;;;;;;;5060347;28;20216;-84
2022/08/08 01:32:15;;;;;;;0.40;0.40;;;;;;;;;;5046772;28;20209;-83
2022/08/08 01:35:06;;;;;;;0.30;0.30;;;;;;;;;;5066736;28;20294;-84
2022/08/08 01:38:02;;;;;;;0.40;0.40;;;;;;;;;;5066459;28;20212;-83
2022/08/08 01:40:34;;;;;;;0.33;0.33;;;;;;;;;;5076386;28;20291;-84
2022/08/08 01:43:07;;;;;;;0.33;0.33;;;;;;;;;;5065524;28;20362;-83
2022/08/08 01:45:49;;;;;;;0.40;0.40;;;;;;;;;;5065207;28;20209;-84
2022/08/08 01:48:32;;;;;;;0.40;0.40;;;;;;;;;;5095401;28;20222;-84
2022/08/08 01:51:14;;;;;;;0.30;0.30;;;;;;;;;;5084276;28;20201;-85
2022/08/08 01:54:08;;;;;;;0.40;0.40;;;;;;;;;;5074296;28;20300;-84
2022/08/08 01:57:03;;;;;;;0.40;0.40;;;;;;;;;;5057894;28;20215;-84
2022/08/08 01:59:45;;;;;;;0.33;0.33;;;;;;;;;;5072768;28;20226;-83
2022/08/08 02:02:36;;;;;;;0.60;0.60;;;;;;;;;;5089201;28;20204;-84
2022/08/08 02:05:21;;;;;;;0.30;0.30;;;;;;;;;;5069897;28;20208;-84
2022/08/08 02:07:57;;;;;;;0.53;0.53;;;;;;;;;;5074914;28;20273;-85
2022/08/08 02:10:33;;;;;;;0.30;0.30;;;;;;;;;;5077777;28;20241;-84
2022/08/08 02:13:14;;;;;;;0.50;0.50;;;;;;;;;;5074378;28;20206;-85
2022/08/08 02:16:06;;;;;;;0.30;0.30;;;;;;;;;;5070504;28;20207;-85
2022/08/08 02:18:39;;;;;;;0.40;0.40;;;;;;;;;;5086819;28;20196;-84
2022/08/08 02:24:00;;;;;;;0.30;0.30;;;;;;;;;;5063629;28;20379;-85
2022/08/08 02:26:34;;;;;;;0.50;0.50;;;;;;;;;;5067042;28;20206;-84
2022/08/08 02:29:11;;;;;;;0.40;0.40;;;;;;;;;;5078875;28;20211;-84
2022/08/08 02:31:57;;;;;;;0.30;0.30;;;;;;;;;;5077267;28;20205;-84
2022/08/08 02:34:46;;;;;;;0.30;0.30;;;;;;;;;;5066091;28;20251;-84
2022/08/08 02:37:40;;;;;;;0.77;0.77;;;;;;;;;;5056959;28;20205;-84
2022/08/08 02:40:30;;;;;;;0.40;0.40;;;;;;;;;;5056594;28;20197;-85
2022/08/08 02:43:15;;;;;;;0.40;0.40;;;;;;;;;;5068928;28;20198;-84
2022/08/08 02:46:21;;;;;;;0.80;0.80;;;;;;;;;;5085540;28;20197;-84
2022/08/08 02:49:18;;;;;;;0.70;0.70;;;;;;;;;;5080902;28;20200;-86
2022/08/08 02:52:14;;;;;;;0.30;0.30;;;;;;;;;;5075928;28;20211;-87
2022/08/08 02:55:16;;;;;;;2.27;1.17;;;;;;;;;;5062918;28;20284;-86
2022/08/08 02:58:13;;;;;;;1.07;1.03;;;;;;;;;;5093656;28;20201;-86
2022/08/08 03:00:57;;;;;;;1.13;1.13;;;;;;;;;;5064335;28;20204;-86
2022/08/08 03:03:44;;;;;;;0.40;0.40;;;;;;;;;;5060351;28;20197;-86
2022/08/08 03:06:59;;;;;;;0.50;0.50;;;;;;;;;;5069122;28;20215;-85
2022/08/08 03:09:50;;;;;;;0.50;0.50;;;;;;;;;;5057293;28;20278;-84
2022/08/08 03:12:34;;;;;;;0.50;0.50;;;;;;;;;;5073983;28;20202;-86
2022/08/08 03:15:33;;;;;;;0.40;0.40;;;;;;;;;;5064596;28;20200;-87
2022/08/08 03:18:27;;;;;;;0.40;0.40;;;;;;;;;;5065320;28;20205;-85
2022/08/08 03:21:00;;;;;;;1.03;1.03;;;;;;;;;;5076703;28;20204;-84
2022/08/08 03:23:38;;;;;;;0.70;0.70;;;;;;;;;;5076496;28;20199;-84
2022/08/08 03:26:30;;;;;;;0.40;0.40;;;;;;;;;;5065323;28;20212;-84
2022/08/08 03:29:09;;;;;;;1.57;1.20;;;;;;;;;;5088501;28;20247;-84
2022/08/08 03:34:36;;;;;;;0.40;0.40;;;;;;;;;;5034804;28;20237;-84
2022/08/08 03:37:11;;;;;;;1.00;1.00;;;;;;;;;;5075578;28;20193;-84
2022/08/08 03:40:01;;;;;;;0.40;0.40;;;;;;;;;;5075697;28;20215;-84
2022/08/08 03:42:31;;;;;;;0.50;0.50;;;;;;;;;;5066938;28;20209;-84
2022/08/08 03:45:00;;;;;;;0.40;0.40;;;;;;;;;;5089729;28;20211;-84
2022/08/08 03:47:58;;;;;;;0.40;0.40;;;;;;;;;;5063375;28;20204;-84
2022/08/08 03:50:27;;;;;;;3.10;0.97;;;;;;;;;;5072840;28;20212;-84
2022/08/08 03:52:56;;;;;;;1.43;1.33;;;;;;;;;;5055962;28;20201;-84
2022/08/08 03:55:27;;;;;;;0.40;0.40;;;;;;;;;;5072507;28;20208;-84
2022/08/08 03:58:19;;;;;;;0.30;0.30;;;;;;;;;;5077844;28;20250;-86
2022/08/08 04:01:05;;;;;;;0.40;0.40;;;;;;;;;;5093253;28;20222;-86
2022/08/08 04:03:52;;;;;;;0.83;0.83;;;;;;;;;;5093024;28;20280;-86
2022/08/08 04:06:27;;;;;;;0.30;0.30;;;;;;;;;;5073456;28;20226;-86
2022/08/08 04:08:57;;;;;;;0.30;0.30;;;;;;;;;;5075233;28;20220;-86
2022/08/08 04:11:41;;;;;;;0.90;0.90;;;;;;;;;;5060533;28;20272;-87
2022/08/08 04:14:27;;;;;;;0.87;0.87;;;;;;;;;;5056347;28;20308;-86
2022/08/08 04:17:03;;;;;;;0.80;0.80;;;;;;;;;;5063955;28;20216;-86
2022/08/08 04:19:50;;;;;;;1.03;1.00;;;;;;;;;;5081437;28;20196;-86
2022/08/08 04:22:19;;;;;;;0.40;0.40;;;;;;;;;;5074375;28;20205;-86
2022/08/08 04:24:51;;;;;;;2.10;2.00;;;;;;;;;;5075340;28;20200;-86
2022/08/08 04:27:23;;;;;;;0.40;0.40;;;;;;;;;;5093381;28;20202;-84
2022/08/08 04:30:13;;;;;;;0.80;0.80;;;;;;;;;;5061999;28;20281;-84
2022/08/08 04:32:46;;;;;;;1.20;1.20;;;;;;;;;;5075675;28;20258;-84
2022/08/08 04:35:18;;;;;;;1.03;1.03;;;;;;;;;;5073307;28;20345;-84
2022/08/08 04:37:50;;;;;;;0.60;0.60;;;;;;;;;;5056589;28;20294;-84
2022/08/08 04:40:19;;;;;;;0.70;0.70;;;;;;;;;;5062566;28;20294;-84
2022/08/08 04:42:55;;;;;;;0.33;0.33;;;;;;;;;;5075649;28;20204;-83
2022/08/08 04:45:29;;;;;;;1.07;1.07;;;;;;;;;;5068714;28;20235;-83
2022/08/08 04:47:58;;;;;;;0.40;0.40;;;;;;;;;;5068449;28;20235;-84
2022/08/08 04:50:27;;;;;;;0.30;0.30;;;;;;;;;;5061246;28;20214;-85
2022/08/08 04:53:04;;;;;;;0.30;0.30;;;;;;;;;;5049000;28;20230;-84
2022/08/08 04:55:53;;;;;;;1.17;1.07;;;;;;;;;;5055608;28;20205;-85
2022/08/08 04:58:25;;;;;;;1.80;1.67;;;;;;;;;;5071777;28;20206;-85
2022/08/08 05:00:53;;;;;;;0.67;0.67;;;;;;;;;;5079791;28;20222;-85
2022/08/08 05:03:23;;;;;;;1.97;1.37;;;;;;;;;;5052104;28;20237;-84
2022/08/08 05:06:12;;;;;;;0.43;0.43;;;;;;;;;;5038127;28;20225;-84
2022/08/08 05:08:53;;;;;;;0.80;0.80;;;;;;;;;;5068547;28;20198;-83
2022/08/08 05:11:23;;;;;;;0.50;0.50;;;;;;;;;;5078358;28;20233;-84
2022/08/08 05:13:55;;;;;;;0.60;0.60;;;;;;;;;;5057346;28;20292;-84
2022/08/08 05:16:28;;;;;;;1.33;1.27;;;;;;;;;;5039521;28;20213;-83
2022/08/08 05:19:17;;;;;;;0.93;0.90;;;;;;;;;;5039605;28;20199;-84
2022/08/08 05:22:06;;;;;;;0.60;0.60;;;;;;;;;;5053432;28;20263;-84
2022/08/08 05:24:35;;;;;;;6.57;1.30;;;;;;;;;;5066450;28;20230;-84
2022/08/08 05:27:07;;;;;;;1.27;1.27;;;;;;;;;;5053855;28;20268;-83
2022/08/08 05:29:37;;;;;;;0.67;0.67;;;;;;;;;;5049307;28;20209;-84
2022/08/08 05:32:08;;;;;;;1.00;1.00;;;;;;;;;;5059497;28;20279;-84
2022/08/08 05:34:42;;;;;;;0.30;0.30;;;;;;;;;;5067872;28;20248;-84
2022/08/08 05:37:12;;;;;;;0.30;0.30;;;;;;;;;;5088962;28;20201;-84
2022/08/08 05:39:47;;;;;;;2.73;0.87;;;;;;;;;;5062642;28;20228;-84
2022/08/08 05:42:16;;;;;;;0.30;0.30;;;;;;;;;;5058042;28;20206;-84
2022/08/08 05:44:58;;;;;;;0.40;0.40;;;;;;;;;;5045832;28;20239;-84
2022/08/08 05:47:28;;;;;;;0.30;0.30;;;;;;;;;;5085220;28;20197;-84
2022/08/08 05:50:18;;;;;;;0.50;0.50;;;;;;;;;;5059883;28;20204;-85
2022/08/08 05:52:48;;;;;;;0.30;0.30;;;;;;;;;;5058233;28;20256;-84
2022/08/08 05:55:16;;;;;;;0.33;0.33;;;;;;;;;;5038735;28;20200;-86
2022/08/08 05:57:47;;;;;;;0.30;0.30;;;;;;;;;;5038808;28;20202;-85
2022/08/08 06:00:33;;;;;;;0.97;0.97;;;;;;;;;;5075363;28;20197;-86
2022/08/08 06:03:12;;;;;;;1.37;1.27;;;;;;;;;;5066064;28;20194;-85
2022/08/08 06:05:53;;;;;;;0.53;0.53;;;;;;;;;;5066421;28;20203;-85
2022/08/08 06:08:27;;;;;;;0.30;0.30;;;;;;;;;;5054702;28;20246;-85
2022/08/08 06:11:03;;;;;;;0.40;0.40;;;;;;;;;;5070136;28;20215;-84
2022/08/08 06:13:35;;;;;;;1.83;1.73;;;;;;;;;;5048093;28;20206;-84
2022/08/08 06:16:40;;;;;;;0.63;0.63;;;;;;;;;;5068191;28;20206;-84
2022/08/08 06:19:39;;;;;;;0.37;0.37;;;;;;;;;;5046944;28;20199;-84
2022/08/08 06:22:10;;;;;;;0.30;0.30;;;;;;;;;;5052477;28;20207;-85
2022/08/08 06:25:15;;;;;;;0.30;0.30;;;;;;;;;;5052345;28;20206;-84
2022/08/08 06:28:05;;;;;;;0.67;0.67;;;;;;;;;;5037584;28;20272;-86
2022/08/08 06:30:48;;;;;;;0.57;0.57;;;;;;;;;;5051648;28;20275;-84
2022/08/08 06:33:55;;;;;;;0.50;0.50;;;;;;;;;;5081925;28;20247;-86
2022/08/08 06:37:21;;;;;;;1.43;0.93;;;;;;;;;;5085698;28;20203;-85
2022/08/08 06:41:05;;;;;;;1.83;1.73;;;;;;;;;;5063007;28;20205;-85
2022/08/08 06:44:43;;;;;;;1.03;1.03;;;;;;;;;;5046013;28;20202;-86
2022/08/08 06:48:09;;;;;;;0.57;0.57;;;;;;;;;;5038769;28;20203;-85
2022/08/08 06:51:16;;;;;;;1.00;1.00;;;;;;;;;;5068070;28;20261;-85
2022/08/08 06:54:19;;;;;;;0.57;0.57;;;;;;;;;;5048179;28;20259;-84
2022/08/08 07:00:57;;;;;;;3.40;1.80;;;;;;;;;;5024921;28;20216;-84
2022/08/08 07:03:48;;;;;;;1.07;1.07;;;;;;;;;;5066258;28;20212;-85
2022/08/08 07:06:38;;;;;;;1.33;1.23;;;;;;;;;;5048553;28;20199;-85
2022/08/08 07:09:13;;;;;;;0.53;0.53;;;;;;;;;;5047487;28;20213;-85
2022/08/08 07:12:15;;;;;;;0.77;0.63;;;;;;;;;;5045567;28;20345;-85
2022/08/08 07:15:41;;;;;;;0.40;0.40;;;;;;;;;;4965538;28;20222;-84
2022/08/08 07:19:01;;;;;;;0.50;0.50;;;;;;;;;;4968212;28;20204;-84
2022/08/08 07:22:04;;;;;;;0.90;0.90;;;;;;;;;;4946161;28;20200;-84
2022/08/08 07:47:53;;;;;;;1.60;1.10;;;;;;;;;;4910877;29;20196;-85
2022/08/08 08:02:06;;;;;;;0.67;0.67;;;;;;;;;;4736454;29;20256;-83
2022/08/08 08:05:01;;;;;;;0.90;0.90;;;;;;;;;;4929021;28;20235;-84
2022/08/08 08:07:42;;;;;;;6.57;2.23;;;;;;;;;;5008972;28;20289;-83
2022/08/08 08:10:16;;;;;;;0.80;0.80;;;;;;;;;;4989451;28;20206;-84
2022/08/08 08:13:19;;;;;;;1.70;1.47;;;;;;;;;;4999530;28;20233;-85
2022/08/08 08:16:10;;;;;;;0.87;0.70;;;;;;;;;;5005421;28;20203;-85
2022/08/08 08:18:43;;;;;;;0.90;0.90;;;;;;;;;;5052559;28;20265;-85
2022/08/08 08:21:25;;;;;;;1.00;1.00;;;;;;;;;;5061511;28;20208;-84
2022/08/08 08:24:26;;;;;;;1.60;1.17;;;;;;;;;;5056615;28;20474;-86
2022/08/08 08:27:20;;;;;;;0.90;0.90;;;;;;;;;;5062307;28;20206;-88
2022/08/08 08:30:17;;;;;;;0.70;0.70;;;;;;;;;;5059988;28;20265;-86
2022/08/08 08:32:59;;;;;;;1.33;1.23;;;;;;;;;;5065390;28;20245;-85
2022/08/08 08:35:50;;;;;;;1.27;1.20;;;;;;;;;;5079359;28;20228;-87
2022/08/08 08:38:46;;;;;;;0.93;0.83;;;;;;;;;;5060746;28;20202;-87
2022/08/08 08:41:20;;;;;;;0.70;0.70;;;;;;;;;;5096494;28;20197;-87
2022/08/08 08:44:01;;;;;;;1.03;1.03;;;;;;;;;;5063185;28;20220;-86
2022/08/08 08:46:54;;;;;;;1.00;1.00;;;;;;;;;;5075004;28;20213;-86
2022/08/08 08:49:55;;;;;;;0.70;0.70;;;;;;;;;;5077461;28;20200;-86
2022/08/08 08:52:30;;;;;;;0.73;0.73;;;;;;;;;;5070625;28;20265;-87
2022/08/08 08:55:02;;;;;;;0.70;0.70;;;;;;;;;;5066514;28;20195;-86
2022/08/08 08:57:33;;;;;;;0.70;0.70;;;;;;;;;;5058520;28;20207;-86
2022/08/08 09:00:25;;;;;;;;;;;;;;;;;;;;;
2022/08/08 09:03:42;;;;;;;1.63;1.53;;;;;;;;;;5089193;28;20189;-84
2022/08/08 09:06:45;;;;;;;0.80;0.80;;;;;;;;;;5066578;28;20252;-86
2022/08/08 09:12:17;;;;;;;2.23;1.60;;;;;;;;;;5070920;28;20217;-83
2022/08/08 09:15:02;;;;;;;6.40;1.10;;;;;;;;;;5071889;28;20199;-84
2022/08/08 09:17:38;;;;;;;0.60;0.60;;;;;;;;;;5071205;28;20204;-84
2022/08/08 09:20:26;;;;;;;0.60;0.60;;;;;;;;;;5070804;28;20203;-84
2022/08/08 09:23:15;;;;;;;0.63;0.63;;;;;;;;;;5069667;28;20186;-84
2022/08/08 09:25:58;;;;;;;0.80;0.80;;;;;;;;;;5073048;28;20205;-85
2022/08/08 09:29:07;;;;;;;9.97;1.73;;;;;;;;;;5071683;28;20196;-85
2022/08/08 09:32:03;;;;;;;2.37;0.93;;;;;;;;;;5061229;28;20271;-85
2022/08/08 09:35:24;;;;;;;2.70;1.20;;;;;;;;;;5059877;28;20305;-85
2022/08/08 09:38:45;;;;;;;1.60;1.50;;;;;;;;;;5047125;28;20233;-85
2022/08/08 09:44:51;;;;;;;2.03;0.63;;;;;;;;;;5076541;28;20191;-84
2022/08/08 09:47:27;;;;;;;0.30;0.30;;;;;;;;;;5089440;28;20204;-84
2022/08/08 09:50:15;;;;;;;3.83;1.93;;;;;;;;;;5072166;28;20205;-84
2022/08/08 09:56:41;;;;;;;;;;;;;;;;;;;;;
2022/08/08 10:03:10;;;;;;;0.60;0.60;;;;;;;;;;5065335;28;20232;-84
2022/08/08 10:05:52;;;;;;;0.40;0.40;;;;;;;;;;5068891;28;20208;-84
2022/08/08 10:08:21;;;;;;;0.87;0.87;;;;;;;;;;5077103;28;20222;-85
2022/08/08 10:10:49;;;;;;;0.53;0.53;;;;;;;;;;5064068;28;20198;-85
2022/08/08 10:13:19;;;;;;;1.10;1.00;;;;;;;;;;5062308;28;20479;-85
2022/08/08 10:16:01;;;;;;;0.73;0.53;;;;;;;;;;5071028;28;20205;-83
2022/08/08 10:18:38;;;;;;;0.43;0.43;;;;;;;;;;5079573;28;20200;-83
2022/08/08 10:21:07;;;;;;;0.83;0.53;;;;;;;;;;5070878;28;20199;-83
2022/08/08 10:23:54;;;;;;;4.43;0.83;;;;;;;;;;5066769;28;20269;-84
2022/08/08 10:26:57;;;;;;;0.97;0.67;;;;;;;;;;5058840;28;20221;-83
2022/08/08 10:29:53;;;;;;;1.50;1.20;;;;;;;;;;5049794;28;20258;-82
2022/08/08 10:32:39;;;;;;;1.97;1.27;;;;;;;;;;5065475;28;20208;-87
2022/08/08 10:35:27;;;;;;;1.70;0.90;;;;;;;;;;5074571;28;20230;-85
2022/08/08 10:38:16;;;;;;;0.67;0.67;;;;;;;;;;5072270;28;20302;-85
2022/08/08 10:40:45;;;;;;;2.33;1.00;;;;;;;;;;5075719;28;20224;-86
2022/08/08 10:44:05;;;;;;;0.60;0.60;;;;;;;;;;5078774;28;20253;-85
2022/08/08 10:47:11;;;;;;;0.57;0.57;;;;;;;;;;5056376;28;20205;-85
2022/08/08 10:50:01;;;;;;;1.00;1.00;;;;;;;;;;5092485;28;20207;-86
2022/08/08 10:52:34;;;;;;;1.03;0.93;;;;;;;;;;5075294;28;20200;-84
2022/08/08 10:55:03;;;;;;;0.77;0.77;;;;;;;;;;5068827;28;20215;-84
2022/08/08 10:57:44;;;;;;;0.47;0.47;;;;;;;;;;5074057;28;20196;-85
2022/08/08 11:00:29;;;;;;;0.80;0.80;;;;;;;;;;5067136;28;20262;-85
2022/08/08 11:03:33;;;;;;;0.60;0.50;;;;;;;;;;5075695;28;20293;-84
2022/08/08 11:18:48;;;;;;;0.73;0.73;;;;;;;;;;4952800;28;20280;-85
2022/08/08 11:25:35;;;;;;;1.00;1.00;;;;;;;;;;4970906;28;20222;-83
2022/08/08 11:33:24;;;;;;;;;;;;;;;;;;;;;
2022/08/08 11:36:38;;;;;;;1.30;0.70;;;;;;;;;;4872387;29;20289;-85
2022/08/08 11:39:26;;;;;;;1.20;0.80;;;;;;;;;;4890662;29;20225;-86
2022/08/08 11:42:11;;;;;;;0.93;0.93;;;;;;;;;;4895477;29;20280;-88
2022/08/08 11:44:45;;;;;;;1.23;1.13;;;;;;;;;;4897332;29;20232;-85
2022/08/08 11:47:37;;;;;;;3.20;0.90;;;;;;;;;;4898404;29;20203;-86
2022/08/08 11:50:45;;;;;;;0.67;0.67;;;;;;;;;;4902401;29;20210;-85
2022/08/08 11:53:44;;;;;;;0.37;0.37;;;;;;;;;;4875077;29;20218;-85
2022/08/08 11:56:45;;;;;;;0.30;0.30;;;;;;;;;;4911264;28;20209;-86
2022/08/08 11:59:53;;;;;;;0.63;0.63;;;;;;;;;;4969210;28;20205;-86
2022/08/08 12:06:26;;;;;;;1.27;0.33;;;;;;;;;;4959825;28;20255;-86
2022/08/08 12:09:12;;;;;;;0.93;0.90;;;;;;;;;;5016481;28;20209;-84
2022/08/08 12:11:49;;;;;;;1.50;0.90;;;;;;;;;;4999946;28;20201;-84
2022/08/08 12:14:22;;;;;;;0.93;0.93;;;;;;;;;;5051879;28;20240;-84
2022/08/08 12:17:18;;;;;;;0.63;0.63;;;;;;;;;;5077141;28;20306;-83
2022/08/08 12:20:12;;;;;;;0.50;0.50;;;;;;;;;;5067112;28;20204;-84
2022/08/08 12:22:50;;;;;;;0.77;0.77;;;;;;;;;;5071013;28;20212;-84
2022/08/08 12:25:24;;;;;;;0.60;0.60;;;;;;;;;;5065975;28;20220;-85
2022/08/08 12:28:11;;;;;;;0.30;0.30;;;;;;;;;;5067896;28;20322;-84
2022/08/08 12:30:43;;;;;;;0.50;0.50;;;;;;;;;;5068962;28;20313;-84
2022/08/08 12:33:18;;;;;;;1.10;1.10;;;;;;;;;;5095639;28;20369;-84
2022/08/08 12:35:47;;;;;;;2.07;1.47;;;;;;;;;;5072997;28;20322;-84
2022/08/08 12:38:24;;;;;;;0.30;0.30;;;;;;;;;;5092709;28;20232;-82
2022/08/08 12:41:13;;;;;;;0.40;0.40;;;;;;;;;;5076293;28;20294;-85
2022/08/08 12:44:08;;;;;;;3.37;0.83;;;;;;;;;;5094141;28;20202;-84
2022/08/08 12:46:43;;;;;;;0.63;0.63;;;;;;;;;;5090683;28;20215;-85
2022/08/08 12:49:11;;;;;;;0.87;0.73;;;;;;;;;;5061816;28;20199;-85
2022/08/08 12:52:23;;;;;;;0.50;0.50;;;;;;;;;;5067243;28;20213;-83
2022/08/08 12:55:10;;;;;;;5.60;0.80;;;;;;;;;;5076145;28;20219;-83
2022/08/08 12:57:57;;;;;;;3.90;0.70;;;;;;;;;;5078411;28;20234;-85
2022/08/08 13:00:41;;;;;;;0.60;0.60;;;;;;;;;;5089962;28;20383;-86
2022/08/08 13:03:11;;;;;;;1.07;0.90;;;;;;;;;;5080937;28;20213;-86
2022/08/08 13:05:44;;;;;;;0.97;0.97;;;;;;;;;;5065099;28;20196;-85
2022/08/08 13:08:41;;;;;;;0.70;0.70;;;;;;;;;;5060771;28;20205;-86
2022/08/08 13:11:23;;;;;;;0.57;0.57;;;;;;;;;;5066484;28;20197;-85
2022/08/08 13:14:10;;;;;;;0.47;0.47;;;;;;;;;;5061042;28;20272;-86
2022/08/08 13:16:40;;;;;;;1.40;0.77;;;;;;;;;;5071509;28;20206;-87
2022/08/08 13:19:40;;;;;;;0.70;0.70;;;;;;;;;;5071506;28;20201;-87
2022/08/08 13:22:42;;;;;;;0.30;0.30;;;;;;;;;;5071878;28;20195;-86
2022/08/08 13:25:24;;;;;;;0.50;0.40;;;;;;;;;;5071105;28;20198;-86
2022/08/08 13:28:03;;;;;;;0.53;0.53;;;;;;;;;;5072713;28;20213;-85
2022/08/08 13:30:34;;;;;;;3.97;0.80;;;;;;;;;;5065398;28;20204;-86
2022/08/08 13:33:11;;;;;;;0.70;0.70;;;;;;;;;;5079457;28;20287;-84
2022/08/08 13:35:46;;;;;;;3.13;1.07;;;;;;;;;;5073972;28;20232;-86
2022/08/08 13:38:18;;;;;;;2.23;1.13;;;;;;;;;;5074737;28;20259;-86
2022/08/08 13:40:49;;;;;;;0.40;0.40;;;;;;;;;;5074325;28;20235;-86
2022/08/08 13:43:20;;;;;;;0.47;0.47;;;;;;;;;;5077430;28;20201;-86
2022/08/08 13:46:07;;;;;;;0.57;0.57;;;;;;;;;;5076880;28;20205;-86
2022/08/08 13:48:54;;;;;;;0.30;0.30;;;;;;;;;;5068292;28;20210;-85
2022/08/08 13:51:55;;;;;;;0.60;0.60;;;;;;;;;;5076546;28;20207;-85
2022/08/08 13:54:24;;;;;;;0.57;0.57;;;;;;;;;;5063531;28;20217;-86
2022/08/08 13:57:03;;;;;;;2.83;0.83;;;;;;;;;;5079293;28;20205;-86
2022/08/08 13:59:38;;;;;;;0.60;0.60;;;;;;;;;;5069243;28;20196;-84
2022/08/08 14:02:16;;;;;;;0.73;0.73;;;;;;;;;;5079823;28;20206;-85
2022/08/08 14:04:55;;;;;;;0.40;0.40;;;;;;;;;;5076594;28;20200;-84
2022/08/08 14:07:27;;;;;;;2.33;0.70;;;;;;;;;;5070759;28;20223;-86
2022/08/08 14:10:01;;;;;;;0.77;0.53;;;;;;;;;;5079224;28;20208;-86
2022/08/08 14:12:40;;;;;;;0.67;0.67;;;;;;;;;;5067464;28;20233;-87
2022/08/08 14:15:24;;;;;;;0.70;0.70;;;;;;;;;;5075261;28;20271;-86
2022/08/08 14:18:08;;;;;;;0.63;0.63;;;;;;;;;;5066415;28;20291;-87
2022/08/08 14:21:02;;;;;;;0.63;0.60;;;;;;;;;;5059785;28;20204;-86
2022/08/08 14:23:40;;;;;;;0.60;0.60;;;;;;;;;;5067661;28;20212;-85
2022/08/08 14:26:31;;;;;;;0.37;0.37;;;;;;;;;;5058677;28;20200;-84
2022/08/08 14:29:01;;;;;;;0.70;0.70;;;;;;;;;;5070046;28;20194;-83
2022/08/08 14:31:47;;;;;;;1.80;0.93;;;;;;;;;;5071333;28;20197;-84
2022/08/08 14:34:36;;;;;;;10.37;1.13;;;;;;;;;;5066322;28;20232;-85
2022/08/08 14:37:06;;;;;;;0.70;0.70;;;;;;;;;;5071674;28;20234;-85
2022/08/08 14:39:41;;;;;;;3.17;0.90;;;;;;;;;;5072398;28;20208;-84
2022/08/08 14:42:16;;;;;;;1.53;0.80;;;;;;;;;;5085741;28;20204;-84
2022/08/08 14:44:54;;;;;;;1.00;1.00;;;;;;;;;;5064164;28;20216;-86
2022/08/08 14:47:25;;;;;;;0.77;0.77;;;;;;;;;;5076118;28;20260;-86
2022/08/08 14:50:11;;;;;;;0.90;0.87;;;;;;;;;;5075902;28;20197;-85
2022/08/08 14:52:48;;;;;;;0.60;0.60;;;;;;;;;;5076136;28;20222;-84
2022/08/08 14:55:17;;;;;;;0.47;0.47;;;;;;;;;;5076343;28;20206;-85
2022/08/08 14:57:57;;;;;;;0.50;0.50;;;;;;;;;;5090618;28;20209;-85
2022/08/08 15:00:38;;;;;;;1.03;0.90;;;;;;;;;;5062571;28;20209;-85
2022/08/08 15:03:09;;;;;;;1.10;1.00;;;;;;;;;;5093951;28;20191;-85
2022/08/08 15:05:44;;;;;;;0.60;0.60;;;;;;;;;;5069272;28;20258;-85
2022/08/08 15:08:25;;;;;;;0.70;0.60;;;;;;;;;;5086613;28;20204;-86
2022/08/08 15:11:03;;;;;;;0.50;0.50;;;;;;;;;;5070044;28;20205;-85
2022/08/08 15:13:33;;;;;;;0.60;0.60;;;;;;;;;;5070976;28;20212;-85
2022/08/08 15:16:23;;;;;;;2.27;0.77;;;;;;;;;;5062665;28;20215;-85
2022/08/08 15:18:59;;;;;;;1.00;1.00;;;;;;;;;;5075768;28;20202;-85
2022/08/08 15:21:29;;;;;;;1.13;0.83;;;;;;;;;;5075862;28;20298;-85
2022/08/08 15:23:58;;;;;;;0.40;0.40;;;;;;;;;;5073126;28;20204;-85
2022/08/08 15:26:27;;;;;;;0.73;0.73;;;;;;;;;;5066407;28;20203;-85
2022/08/08 15:28:57;;;;;;;0.57;0.57;;;;;;;;;;5075423;28;20199;-85
2022/08/08 15:31:25;;;;;;;3.70;0.83;;;;;;;;;;5072847;28;20207;-85
2022/08/08 15:34:15;;;;;;;0.70;0.70;;;;;;;;;;5062595;28;20196;-85
2022/08/08 15:36:57;;;;;;;1.10;1.00;;;;;;;;;;5074809;28;20284;-85
2022/08/08 15:39:29;;;;;;;0.63;0.63;;;;;;;;;;5076160;28;20197;-85
2022/08/08 15:41:58;;;;;;;0.93;0.93;;;;;;;;;;5072642;28;20201;-85
2022/08/08 15:44:28;;;;;;;0.70;0.70;;;;;;;;;;5067149;28;20204;-85
2022/08/08 15:46:59;;;;;;;0.97;0.70;;;;;;;;;;5091848;28;20197;-84
2022/08/08 15:49:30;;;;;;;1.40;1.00;;;;;;;;;;5062043;28;20200;-84
2022/08/08 15:52:11;;;;;;;0.67;0.67;;;;;;;;;;5055601;28;20261;-84
2022/08/08 15:54:40;;;;;;;1.80;0.80;;;;;;;;;;5070162;28;20299;-85
2022/08/08 15:57:14;;;;;;;0.57;0.57;;;;;;;;;;5072316;28;20221;-85
2022/08/08 15:59:43;;;;;;;1.13;1.07;;;;;;;;;;5072173;28;20193;-85
2022/08/08 16:02:32;;;;;;;0.70;0.70;;;;;;;;;;5060889;28;20200;-85
2022/08/08 16:05:03;;;;;;;1.03;1.03;;;;;;;;;;5055839;28;20208;-85
2022/08/08 16:07:41;;;;;;;0.40;0.40;;;;;;;;;;5071753;28;20215;-85
2022/08/08 16:10:21;;;;;;;0.70;0.70;;;;;;;;;;5076289;28;20200;-85
2022/08/08 16:13:10;;;;;;;0.87;0.87;;;;;;;;;;5074525;28;20197;-85
2022/08/08 16:15:59;;;;;;;0.50;0.50;;;;;;;;;;5067998;28;20208;-84
2022/08/08 16:18:45;;;;;;;1.13;1.03;;;;;;;;;;5061268;28;20196;-84
2022/08/08 16:21:28;;;;;;;0.73;0.73;;;;;;;;;;5066713;28;20227;-84
2022/08/08 16:23:56;;;;;;;0.40;0.40;;;;;;;;;;5071536;28;20224;-85
2022/08/08 16:26:25;;;;;;;0.60;0.60;;;;;;;;;;5093429;28;20200;-85
2022/08/08 16:29:04;;;;;;;0.73;0.73;;;;;;;;;;5075466;28;20200;-85
2022/08/08 16:31:35;;;;;;;2.10;0.87;;;;;;;;;;5063264;28;20202;-85
2022/08/08 16:34:05;;;;;;;5.87;0.70;;;;;;;;;;5074459;28;20213;-84
2022/08/08 16:36:37;;;;;;;1.40;1.17;;;;;;;;;;5075186;28;20215;-85
2022/08/08 16:39:08;;;;;;;0.80;0.80;;;;;;;;;;5062548;28;20211;-85
2022/08/08 16:41:55;;;;;;;0.63;0.63;;;;;;;;;;5089334;28;20201;-85
2022/08/08 16:44:29;;;;;;;0.93;0.93;;;;;;;;;;5085225;28;20283;-85
2022/08/08 16:47:20;;;;;;;1.07;1.00;;;;;;;;;;5075449;28;20203;-85
2022/08/08 16:49:59;;;;;;;0.20;0.20;;;;;;;;;;5074806;28;20204;-84
2022/08/08 16:52:30;;;;;;;0.93;0.83;;;;;;;;;;5092914;28;20197;-84
2022/08/08 16:55:18;;;;;;;1.17;0.90;;;;;;;;;;5055496;28;20205;-84
2022/08/08 16:58:07;;;;;;;1.40;1.30;;;;;;;;;;5070906;28;20276;-84
2022/08/08 17:00:45;;;;;;;0.80;0.73;;;;;;;;;;5087317;28;20206;-85
2022/08/08 17:03:18;;;;;;;0.70;0.70;;;;;;;;;;5072421;28;20213;-84
2022/08/08 17:06:07;;;;;;;0.77;0.77;;;;;;;;;;5090684;28;20198;-85
2022/08/08 17:08:57;;;;;;;0.70;0.70;;;;;;;;;;5059085;28;20202;-85
2022/08/08 17:11:25;;;;;;;0.77;0.77;;;;;;;;;;5074481;28;20203;-85
2022/08/08 17:14:06;;;;;;;1.87;1.57;;;;;;;;;;5084662;28;20357;-85
2022/08/08 17:16:47;;;;;;;1.70;0.97;;;;;;;;;;5078878;28;20209;-85
2022/08/08 17:19:26;;;;;;;4.20;0.90;;;;;;;;;;5083452;28;20193;-85
2022/08/08 17:21:56;;;;;;;7.20;0.80;;;;;;;;;;5078351;28;20224;-84
2022/08/08 17:24:30;;;;;;;0.73;0.60;;;;;;;;;;5066597;28;20201;-83
2022/08/08 17:26:59;;;;;;;0.47;0.47;;;;;;;;;;5094607;28;20193;-83
2022/08/08 17:29:28;;;;;;;0.80;0.80;;;;;;;;;;5095702;28;20201;-84
2022/08/08 17:32:04;;;;;;;3.37;0.70;;;;;;;;;;5095705;28;20200;-84
2022/08/08 17:34:36;;;;;;;1.47;0.50;;;;;;;;;;5095765;28;20266;-83
2022/08/08 17:37:25;;;;;;;0.67;0.67;;;;;;;;;;5061108;28;20241;-84
2022/08/08 17:39:56;;;;;;;2.00;1.00;;;;;;;;;;5069848;28;20194;-84
2022/08/08 17:42:40;;;;;;;0.70;0.70;;;;;;;;;;5095332;28;20209;-83
2022/08/08 17:45:14;;;;;;;0.90;0.90;;;;;;;;;;5077399;28;20197;-84
2022/08/08 17:47:50;;;;;;;0.77;0.53;;;;;;;;;;5077686;28;20199;-84
2022/08/08 17:50:18;;;;;;;0.60;0.60;;;;;;;;;;5057658;28;20197;-83